Time;durP1;ratioP1;P1;durP2;ratioP2;P2;SDS_P1;SDS_P2;PMS_P1;PMS_P2;Temp;Humidity;BMP_temperature;BMP_pressure;BME280_temperature;BME280_humidity;BME280_pressure;Samples;Min_cycle;Max_cycle;Signal;HPM_P1;HPM_P2
2021/09/24 00:00:34;;;;;;;1.55;1.20;;;;;;;18.34;61.44;98555.34;2297091;84;31614;-74
2021/09/24 00:03:55;;;;;;;4.55;1.90;;;;;;;18.30;61.13;98568.25;2307889;84;25691;-73
2021/09/24 00:07:16;;;;;;;5.35;1.42;;;;;;;18.27;60.89;98569.22;2300489;84;25621;-74
2021/09/24 00:10:38;;;;;;;1.62;1.05;;;;;;;18.26;60.58;98560.91;2295878;84;30869;-74
2021/09/24 00:14:00;;;;;;;2.35;1.10;;;;;;;18.24;60.29;98577.23;2293000;84;25728;-74
2021/09/24 00:17:24;;;;;;;2.12;0.90;;;;;;;18.18;60.00;98590.17;2305346;84;25889;-74
2021/09/24 00:20:45;;;;;;;4.60;0.90;;;;;;;18.12;59.79;98593.06;2300128;84;26252;-74
2021/09/24 00:24:07;;;;;;;5.08;1.65;;;;;;;18.09;59.53;98589.64;2314617;84;25652;-76
2021/09/24 00:27:28;;;;;;;4.65;1.30;;;;;;;18.05;59.33;98588.03;2295415;84;26036;-74
2021/09/24 00:30:48;;;;;;;2.58;1.10;;;;;;;18.02;59.12;98592.09;2318934;84;31440;-74
2021/09/24 00:34:10;;;;;;;3.40;1.47;;;;;;;17.95;58.89;98595.41;2306637;84;32584;-74
2021/09/24 00:37:31;;;;;;;3.98;1.00;;;;;;;17.90;58.76;98586.34;2316821;84;26354;-76
2021/09/24 00:40:52;;;;;;;2.90;1.10;;;;;;;17.86;58.59;98585.20;2285643;85;30872;-77
2021/09/24 00:44:13;;;;;;;3.45;1.65;;;;;;;17.78;58.42;98581.48;2285270;85;25727;-75
2021/09/24 00:47:34;;;;;;;8.38;1.30;;;;;;;17.71;58.30;98591.81;2307713;84;30936;-75
2021/09/24 00:50:55;;;;;;;6.35;1.22;;;;;;;17.65;58.19;98605.19;2313630;84;25753;-75
2021/09/24 00:54:16;;;;;;;3.83;0.98;;;;;;;17.61;58.09;98611.48;2317586;84;25634;-76
2021/09/24 00:57:37;;;;;;;5.83;1.12;;;;;;;17.53;57.99;98610.42;2320455;84;31031;-75
2021/09/24 01:01:30;;;;;;;8.90;2.17;;;;;;;17.44;57.85;98608.94;2318424;84;30869;-74
2021/09/24 01:04:53;;;;;;;9.15;2.80;;;;;;;17.41;57.79;98613.45;2291042;83;25535;-74
2021/09/24 01:08:21;;;;;;;3.65;1.10;;;;;;;17.34;57.68;98623.31;2310441;84;26206;-74
2021/09/24 01:11:48;;;;;;;4.37;1.40;;;;;;;17.27;57.60;98616.52;2314543;84;25625;-74
2021/09/24 01:15:41;;;;;;;4.97;1.10;;;;;;;17.20;57.52;98615.00;2263487;86;25691;-75
2021/09/24 01:19:03;;;;;;;3.47;1.52;;;;;;;17.12;57.47;98615.70;2269992;86;25870;-75
2021/09/24 01:22:25;;;;;;;4.97;1.72;;;;;;;17.02;57.43;98624.34;2266793;86;25649;-76
2021/09/24 01:25:49;;;;;;;7.65;1.52;;;;;;;16.98;57.42;98620.94;2273182;86;25747;-74
2021/09/24 01:29:09;;;;;;;6.37;2.02;;;;;;;16.95;57.33;98605.70;2264000;86;25889;-75
2021/09/24 01:32:46;;;;;;;8.20;1.80;;;;;;;16.92;57.25;98617.64;2268857;86;25746;-74
2021/09/24 01:36:07;;;;;;;9.05;2.05;;;;;;;16.90;57.16;98615.03;2270941;86;25609;-74
2021/09/24 01:39:31;;;;;;;4.72;1.22;;;;;;;16.87;57.13;98618.21;2267525;84;30819;-75
2021/09/24 01:42:54;;;;;;;4.78;1.50;;;;;;;16.90;57.05;98629.50;2314721;84;25396;-73
2021/09/24 01:46:15;;;;;;;7.40;1.52;;;;;;;16.89;56.95;98629.11;2312330;84;25837;-73
2021/09/24 01:49:36;;;;;;;3.90;1.25;;;;;;;16.86;56.83;98620.45;2309122;84;31061;-73
2021/09/24 01:52:57;;;;;;;5.45;2.22;;;;;;;16.84;56.75;98620.94;2304251;84;25820;-74
2021/09/24 01:56:25;;;;;;;5.97;1.60;;;;;;;16.82;56.67;98610.92;2292223;84;25735;-76
2021/09/24 01:59:46;;;;;;;3.17;1.30;;;;;;;16.78;56.64;98626.41;2292657;84;26094;-74
2021/09/24 02:03:07;;;;;;;5.75;1.27;;;;;;;16.73;56.59;98621.22;2290713;84;25671;-76
2021/09/24 02:06:28;;;;;;;8.35;1.55;;;;;;;16.69;56.56;98619.14;2318915;84;30892;-73
2021/09/24 02:09:49;;;;;;;5.62;1.70;;;;;;;16.64;56.53;98618.42;2316847;84;25713;-74
2021/09/24 02:13:10;;;;;;;4.53;1.00;;;;;;;16.59;56.63;98607.16;2299716;84;30909;-73
2021/09/24 02:16:31;;;;;;;4.08;1.17;;;;;;;16.57;56.67;98622.57;2320635;84;30938;-73
2021/09/24 02:19:52;;;;;;;4.40;1.12;;;;;;;16.55;56.76;98613.88;2306009;84;26190;-74
2021/09/24 02:23:17;;;;;;;4.67;1.30;;;;;;;16.54;56.77;98618.28;2292975;84;25711;-75
2021/09/24 02:26:39;;;;;;;6.08;1.90;;;;;;;16.53;56.87;98632.33;2286518;85;25822;-74
2021/09/24 02:30:01;;;;;;;3.17;1.32;;;;;;;16.50;56.89;98621.46;2303858;84;25615;-74
2021/09/24 02:33:36;;;;;;;8.38;2.17;;;;;;;16.50;56.92;98624.52;2298594;83;25915;-74
2021/09/24 02:37:08;;;;;;;5.65;1.32;;;;;;;16.49;57.00;98628.06;2292607;84;25639;-74
2021/09/24 02:40:31;;;;;;;5.08;1.77;;;;;;;16.48;56.97;98638.19;2310578;84;26329;-76
2021/09/24 02:43:55;;;;;;;10.85;2.95;;;;;;;16.48;57.00;98642.13;2306657;84;25620;-75
2021/09/24 02:47:15;;;;;;;13.25;1.57;;;;;;;16.46;57.03;98650.05;2303046;84;25254;-74
2021/09/24 02:50:50;;;;;;;3.72;2.12;;;;;;;16.44;57.12;98658.91;2302732;84;31314;-74
2021/09/24 02:54:11;;;;;;;6.60;1.40;;;;;;;16.45;57.13;98671.14;2286078;85;25865;-73
2021/09/24 02:57:32;;;;;;;5.08;1.30;;;;;;;16.42;57.08;98669.91;2298288;84;31579;-73
2021/09/24 03:00:53;;;;;;;4.90;1.57;;;;;;;16.41;57.10;98682.66;2314373;84;25688;-75
2021/09/24 03:04:17;;;;;;;9.80;1.90;;;;;;;16.39;57.10;98677.88;2314793;84;25548;-73
2021/09/24 03:07:39;;;;;;;7.17;2.33;;;;;;;16.38;57.06;98673.08;2305600;84;26307;-80
2021/09/24 03:11:00;;;;;;;5.45;1.35;;;;;;;16.36;57.06;98673.56;2297923;84;25845;-75
2021/09/24 03:14:21;;;;;;;3.67;1.60;;;;;;;16.35;57.10;98686.30;2317886;84;25690;-74
2021/09/24 03:17:42;;;;;;;8.93;1.82;;;;;;;16.32;57.06;98694.73;2316093;84;25755;-74
2021/09/24 03:21:04;;;;;;;6.10;1.50;;;;;;;16.30;57.11;98696.10;2302735;84;30851;-75
2021/09/24 03:25:03;;;;;;;7.85;2.85;;;;;;;16.28;57.09;98696.13;2318017;84;26413;-74
2021/09/24 03:28:15;;;;;;;8.90;3.33;;;;;;;16.29;57.17;98699.61;2314800;84;25336;-74
2021/09/24 03:31:41;;;;;;;7.92;1.35;;;;;;;16.28;57.15;98713.22;2304122;84;25751;-76
2021/09/24 03:35:03;;;;;;;10.00;2.65;;;;;;;16.27;57.16;98715.90;2262472;85;25924;-75
2021/09/24 03:38:27;;;;;;;7.33;1.75;;;;;;;16.27;57.13;98723.33;2330250;83;25809;-75
2021/09/24 03:41:48;;;;;;;5.80;2.02;;;;;;;16.27;57.11;98725.96;2330208;84;25730;-74
2021/09/24 03:49:12;;;;;;;5.08;1.80;;;;;;;16.28;57.14;98727.67;2528477;77;31342;-74
2021/09/24 03:52:37;;;;;;;12.90;2.30;;;;;;;16.23;57.15;98732.62;2474191;78;25661;-76
2021/09/24 03:56:02;;;;;;;7.75;1.52;;;;;;;16.17;57.13;98738.93;2470632;80;26193;-76
2021/09/24 03:59:27;;;;;;;6.03;2.70;;;;;;;16.18;57.14;98737.16;2468068;80;25695;-74
2021/09/24 04:02:48;;;;;;;6.20;1.75;;;;;;;16.19;57.22;98742.37;2437424;80;26239;-77
2021/09/24 04:06:10;;;;;;;6.72;1.70;;;;;;;16.19;57.13;98750.25;2471379;79;25592;-75
2021/09/24 04:09:31;;;;;;;5.97;1.55;;;;;;;16.17;57.13;98753.39;2488499;78;25624;-76
2021/09/24 04:12:52;;;;;;;4.30;1.65;;;;;;;16.14;57.13;98752.16;2511843;78;25591;-74
2021/09/24 04:16:14;;;;;;;7.30;1.70;;;;;;;16.13;57.22;98765.31;2517998;78;25805;-74
2021/09/24 04:19:49;;;;;;;7.42;1.72;;;;;;;16.11;57.33;98765.37;2503396;78;25647;-82
2021/09/24 04:23:10;;;;;;;7.40;1.60;;;;;;;16.11;57.29;98764.05;2509465;78;25941;-75
2021/09/24 04:26:30;;;;;;;8.80;1.50;;;;;;;16.10;57.27;98770.64;2507113;78;31400;-75
2021/09/24 04:30:09;;;;;;;6.28;1.37;;;;;;;16.08;57.34;98775.95;2502295;78;25614;-75
2021/09/24 04:33:52;;;;;;;9.40;1.65;;;;;;;16.09;57.34;98782.93;2507228;77;25564;-74
2021/09/24 04:37:13;;;;;;;10.53;2.00;;;;;;;16.11;57.34;98777.66;2519854;78;25157;-74
2021/09/24 04:40:34;;;;;;;9.98;1.85;;;;;;;16.14;57.35;98785.47;2519904;78;25808;-75
2021/09/24 04:43:55;;;;;;;7.70;1.92;;;;;;;16.16;57.29;98798.10;2518379;78;25346;-75
2021/09/24 04:47:28;;;;;;;8.10;1.30;;;;;;;16.16;57.21;98799.42;2508829;78;25808;-75
2021/09/24 04:51:04;;;;;;;7.97;1.65;;;;;;;16.16;57.14;98802.05;2502832;78;25706;-74
2021/09/24 04:54:25;;;;;;;4.87;1.75;;;;;;;16.14;57.21;98803.41;2408435;81;25744;-74
2021/09/24 04:57:45;;;;;;;7.05;1.50;;;;;;;16.16;57.17;98805.99;2405143;80;25715;-74
2021/09/24 05:01:06;;;;;;;10.05;1.72;;;;;;;16.16;57.16;98815.19;2397703;80;31001;-77
2021/09/24 05:04:47;;;;;;;7.67;2.37;;;;;;;16.18;57.11;98812.09;2401343;80;25722;-76
2021/09/24 05:08:17;;;;;;;7.85;1.60;;;;;;;16.21;57.08;98829.11;2357952;83;26365;-76
2021/09/24 05:11:38;;;;;;;6.83;1.42;;;;;;;16.25;57.09;98812.34;2361340;83;25555;-80
2021/09/24 05:14:59;;;;;;;6.47;1.90;;;;;;;16.32;56.95;98834.95;2329480;84;30814;-75
2021/09/24 05:18:20;;;;;;;9.65;2.30;;;;;;;16.35;56.87;98841.46;2344282;82;25872;-78
2021/09/24 05:21:41;;;;;;;5.53;1.45;;;;;;;16.40;56.84;98846.17;2382195;82;31068;-74
2021/09/24 05:25:04;;;;;;;4.83;1.62;;;;;;;16.47;56.83;98848.20;2403119;82;25706;-77
2021/09/24 05:28:25;;;;;;;9.43;2.20;;;;;;;16.56;56.70;98865.05;2403560;82;25752;-76
2021/09/24 05:31:47;;;;;;;5.28;1.72;;;;;;;16.59;56.61;98866.29;2400835;82;30935;-81
2021/09/24 05:35:09;;;;;;;5.10;1.82;;;;;;;16.65;56.51;98869.23;2374427;82;25749;-74
2021/09/24 05:38:31;;;;;;;4.92;1.47;;;;;;;16.78;57.28;98869.82;2362346;83;25723;-74
2021/09/24 05:41:54;;;;;;;5.78;1.55;;;;;;;16.87;57.01;98877.00;2349643;82;25726;-73
2021/09/24 05:45:27;;;;;;;6.78;1.62;;;;;;;16.96;56.78;98874.13;2410739;80;25774;-77
2021/09/24 05:48:48;;;;;;;4.78;1.60;;;;;;;17.04;56.57;98877.87;2438108;80;25667;-73
2021/09/24 05:52:10;;;;;;;7.03;1.92;;;;;;;17.05;56.41;98876.12;2439520;80;31317;-73
2021/09/24 05:55:31;;;;;;;9.73;1.77;;;;;;;17.08;56.33;98892.70;2436437;81;25695;-75
2021/09/24 05:58:52;;;;;;;3.87;1.42;;;;;;;17.09;56.26;98886.52;2438710;81;25725;-76
2021/09/24 06:02:13;;;;;;;9.13;2.10;;;;;;;17.15;56.55;98892.09;2420480;79;25629;-74
2021/09/24 06:05:34;;;;;;;5.95;1.50;;;;;;;17.31;56.44;98905.22;2447883;80;30917;-74
2021/09/24 06:08:55;;;;;;;4.75;1.85;;;;;;;17.56;57.47;98905.42;2437917;79;25829;-75
2021/09/24 06:12:19;;;;;;;4.50;1.47;;;;;;;17.71;57.47;98906.74;2438670;80;25594;-74
2021/09/24 06:15:42;;;;;;;10.32;1.65;;;;;;;17.89;58.00;98910.67;2410867;79;25792;-74
2021/09/24 06:19:02;;;;;;;9.28;2.37;;;;;;;18.00;58.00;98907.70;2439861;80;25736;-74
2021/09/24 06:22:27;;;;;;;11.57;2.27;;;;;;;18.11;57.84;98909.55;2443483;80;30931;-74
2021/09/24 06:25:48;;;;;;;14.25;1.77;;;;;;;18.24;57.75;98904.77;2434089;79;25727;-75
2021/09/24 06:29:09;;;;;;;10.15;1.67;;;;;;;18.39;57.67;98917.45;2449314;80;25757;-74
2021/09/24 06:32:30;;;;;;;9.53;2.20;;;;;;;18.60;57.59;98916.80;2469729;80;30860;-74
2021/09/24 06:35:52;;;;;;;11.63;2.20;;;;;;;18.78;57.33;98929.01;2459907;79;31445;-76
2021/09/24 06:39:12;;;;;;;6.47;1.40;;;;;;;18.88;57.20;98933.07;2461639;78;25668;-76
2021/09/24 06:42:36;;;;;;;4.72;1.52;;;;;;;19.01;56.94;98930.89;2472801;79;25720;-75
2021/09/24 06:45:57;;;;;;;8.50;2.20;;;;;;;19.15;56.96;98927.77;2445134;80;25658;-75
2021/09/24 06:49:22;;;;;;;6.17;1.70;;;;;;;19.33;56.68;98931.08;2485518;78;29969;-73
2021/09/24 06:53:03;;;;;;;5.37;1.72;;;;;;;19.33;56.58;98936.36;2527492;77;25693;-74
2021/09/24 06:56:24;;;;;;;6.85;1.42;;;;;;;19.34;56.29;98935.00;2523512;78;25666;-74
2021/09/24 06:59:57;;;;;;;7.92;1.77;;;;;;;19.26;56.13;98929.11;2513636;78;25679;-74
2021/09/24 07:03:18;;;;;;;10.50;2.40;;;;;;;19.20;56.04;98936.38;2467403;78;25703;-74
2021/09/24 07:06:45;;;;;;;7.80;1.82;;;;;;;19.17;56.01;98937.38;2461753;80;31527;-74
2021/09/24 07:10:08;;;;;;;8.65;2.05;;;;;;;19.16;55.85;98936.09;2456538;79;26282;-74
2021/09/24 07:13:28;;;;;;;5.53;1.55;;;;;;;19.19;55.76;98939.95;2466930;79;25805;-74
2021/09/24 07:16:50;;;;;;;5.97;2.70;;;;;;;19.13;55.18;98953.36;2463412;78;25707;-74
2021/09/24 07:20:11;;;;;;;5.67;1.92;;;;;;;18.95;54.98;98953.08;2468192;78;26071;-74
2021/09/24 07:23:32;;;;;;;7.83;1.82;;;;;;;18.88;54.80;98967.39;2468711;78;25659;-74
2021/09/24 07:27:11;;;;;;;7.33;1.98;;;;;;;18.82;54.49;98965.81;2475855;78;25728;-79
2021/09/24 07:30:32;;;;;;;12.25;1.80;;;;;;;18.82;54.14;98976.38;2522158;78;25604;-74
2021/09/24 07:33:53;;;;;;;6.25;1.60;;;;;;;18.75;53.91;98979.27;2513603;78;31539;-81
2021/09/24 07:37:14;;;;;;;4.22;1.60;;;;;;;18.81;53.63;98981.72;2474242;78;25613;-74
2021/09/24 07:40:35;;;;;;;14.05;1.80;;;;;;;18.78;53.70;98987.95;2469890;80;25687;-73
2021/09/24 07:43:57;;;;;;;6.97;2.40;;;;;;;18.82;53.73;98994.85;2470391;78;25694;-82
2021/09/24 07:47:21;;;;;;;12.33;2.62;;;;;;;18.88;53.73;99005.22;2473450;79;25641;-74
2021/09/24 07:50:42;;;;;;;6.58;1.57;;;;;;;19.16;53.81;98999.03;2462848;79;25711;-74
2021/09/24 07:54:03;;;;;;;5.17;1.80;;;;;;;19.58;53.32;99002.45;2462216;80;25629;-76
2021/09/24 07:57:31;;;;;;;9.18;2.35;;;;;;;21.36;51.77;99020.38;2459942;79;25555;-76
2021/09/24 08:00:52;;;;;;;8.63;2.47;;;;;;;22.48;50.28;99022.52;2462170;80;25889;-75
2021/09/24 08:04:13;;;;;;;4.12;1.80;;;;;;;23.45;49.00;99026.65;2477832;78;25159;-76
2021/09/24 08:07:34;;;;;;;6.35;2.05;;;;;;;24.70;46.88;99026.68;2529718;77;25663;-74
2021/09/24 08:10:56;;;;;;;8.58;2.02;;;;;;;26.05;45.55;99038.80;2530166;77;25232;-80
2021/09/24 08:14:16;;;;;;;4.58;1.62;;;;;;;27.63;43.29;99029.95;2529993;78;25416;-76
2021/09/24 08:17:40;;;;;;;7.90;2.70;;;;;;;29.81;41.13;99034.36;2524271;78;25730;-75
2021/09/24 08:21:01;;;;;;;5.30;1.40;;;;;;;31.74;38.09;99034.34;2476159;78;26320;-74
2021/09/24 08:24:22;;;;;;;10.60;1.98;;;;;;;32.67;35.89;99038.84;2461431;80;25629;-74
2021/09/24 08:27:44;;;;;;;8.68;1.82;;;;;;;33.59;34.67;99054.80;2510885;78;25706;-75
2021/09/24 08:31:10;;;;;;;5.45;2.02;;;;;;;33.09;33.69;99052.67;2526286;77;25654;-76
2021/09/24 08:34:34;;;;;;;7.62;2.45;;;;;;;32.38;33.38;99054.88;2526000;78;25592;-74
2021/09/24 08:37:55;;;;;;;6.90;1.90;;;;;;;31.82;33.64;99064.66;2528175;78;25470;-74
2021/09/24 08:41:17;;;;;;;5.78;2.10;;;;;;;31.26;33.98;99051.44;2526770;77;25623;-73
2021/09/24 08:44:38;;;;;;;6.33;2.17;;;;;;;31.15;34.24;99040.69;2524850;78;25908;-77
2021/09/24 08:48:29;;;;;;;7.95;1.90;;;;;;;31.69;33.94;99065.34;2521950;77;25600;-74
2021/09/24 08:51:52;;;;;;;3.70;1.50;;;;;;;31.19;33.80;99048.41;2522204;78;25469;-77
2021/09/24 08:55:19;;;;;;;4.83;2.25;;;;;;;32.87;32.97;99060.00;2521965;77;25213;-75
2021/09/24 08:58:41;;;;;;;5.00;1.60;;;;;;;33.38;32.04;99073.83;2529571;78;25571;-76
2021/09/24 09:02:06;;;;;;;5.28;1.30;;;;;;;32.36;31.95;99085.16;2527341;77;25848;-75
2021/09/24 09:05:46;;;;;;;4.70;1.57;;;;;;;31.50;32.33;99084.42;2527070;77;25643;-75
2021/09/24 09:09:07;;;;;;;3.15;1.57;;;;;;;30.66;32.67;99097.14;2521963;77;25761;-75
2021/09/24 09:12:28;;;;;;;5.72;1.90;;;;;;;30.04;33.39;99091.20;2524711;78;25707;-75
2021/09/24 09:16:26;;;;;;;4.65;1.67;;;;;;;30.97;33.54;99082.95;2527762;77;25726;-74
2021/09/24 09:19:47;;;;;;;5.15;1.47;;;;;;;31.91;33.24;99092.71;2414571;80;25857;-75
2021/09/24 09:23:11;;;;;;;2.77;1.42;;;;;;;33.28;32.46;99092.38;2406646;80;25660;-78
2021/09/24 09:26:32;;;;;;;3.58;1.47;;;;;;;33.63;31.71;99108.05;2419338;81;25946;-75
2021/09/24 09:30:15;;;;;;;6.42;2.08;;;;;;;34.01;31.45;99113.95;2419563;81;25817;-82
2021/09/24 09:33:36;;;;;;;4.87;1.47;;;;;;;33.28;31.13;99109.42;2419384;81;25736;-77
2021/09/24 09:36:57;;;;;;;3.02;1.85;;;;;;;32.22;31.49;99109.30;2415224;80;25389;-77
2021/09/24 09:40:21;;;;;;;7.17;1.40;;;;;;;31.44;32.18;99107.82;2419620;81;25724;-75
2021/09/24 09:43:49;;;;;;;8.18;1.40;;;;;;;30.89;32.63;99101.56;2418975;81;25647;-78
2021/09/24 09:47:15;;;;;;;5.10;1.40;;;;;;;30.18;32.95;99104.05;2419480;80;25802;-76
2021/09/24 09:50:38;;;;;;;6.95;1.65;;;;;;;30.11;33.60;99105.02;2439426;80;25825;-77
2021/09/24 09:54:03;;;;;;;3.83;1.80;;;;;;;30.78;33.78;99115.01;2452393;80;26087;-76
2021/09/24 09:57:24;;;;;;;8.93;1.52;;;;;;;31.86;33.83;99129.47;2512790;77;26250;-76
2021/09/24 10:01:05;;;;;;;4.17;1.98;;;;;;;32.37;34.07;99112.52;2502002;78;25588;-77
2021/09/24 10:04:45;;;;;;;6.40;2.13;;;;;;;32.73;34.09;99124.28;2522439;78;25265;-74
2021/09/24 10:08:30;;;;;;;4.67;1.52;;;;;;;33.52;33.79;99129.82;2522685;77;25824;-81
2021/09/24 10:11:52;;;;;;;4.58;1.80;;;;;;;34.69;33.13;99136.81;2522372;77;25608;-77
2021/09/24 10:15:19;;;;;;;9.33;1.82;;;;;;;35.66;32.11;99148.51;2503990;78;25586;-76
2021/09/24 10:19:00;;;;;;;2.90;1.37;;;;;;;36.40;31.31;99147.80;2466552;79;25900;-77
2021/09/24 10:23:13;;;;;;;7.45;1.27;;;;;;;37.08;30.48;99170.12;2460245;78;26429;-77
2021/09/24 10:26:50;;;;;;;3.87;1.47;;;;;;;37.32;29.79;99161.20;2492516;78;26089;-81
2021/09/24 10:30:29;;;;;;;7.50;1.93;;;;;;;36.88;29.39;99137.73;2498083;78;25665;-77
2021/09/24 10:34:00;;;;;;;4.60;2.00;;;;;;;36.47;29.46;99167.01;2508988;77;25847;-75
2021/09/24 10:37:38;;;;;;;4.55;1.82;;;;;;;36.92;29.11;99165.92;2503184;78;25657;-76
2021/09/24 10:41:13;;;;;;;4.42;1.67;;;;;;;37.30;28.35;99167.33;2504376;78;25654;-82
2021/09/24 10:44:40;;;;;;;9.98;2.12;;;;;;;37.02;28.10;99160.74;2511106;78;25586;-78
2021/09/24 10:48:25;;;;;;;3.85;1.50;;;;;;;36.50;28.00;99166.22;2504608;78;26255;-75
2021/09/24 10:52:12;;;;;;;5.87;2.33;;;;;;;36.20;28.01;99170.71;2509718;78;25675;-79
2021/09/24 10:56:06;;;;;;;5.03;1.75;;;;;;;35.49;28.15;99162.87;2511521;78;25777;-79
2021/09/24 10:59:32;;;;;;;4.03;1.40;;;;;;;34.63;28.47;99155.49;2339903;81;25760;-79
2021/09/24 11:03:12;;;;;;;8.98;1.35;;;;;;;33.71;29.22;99163.59;2347092;81;26085;-77
2021/09/24 11:06:52;;;;;;;5.92;1.65;;;;;;;33.16;29.98;99155.09;2341360;82;25817;-76
2021/09/24 11:10:48;;;;;;;4.42;1.20;;;;;;;32.81;30.70;99141.52;2361122;83;25603;-75
2021/09/24 11:14:29;;;;;;;4.90;1.12;;;;;;;32.36;31.21;99147.70;2208079;85;25772;-76
2021/09/24 11:17:52;;;;;;;5.53;1.57;;;;;;;31.77;31.94;99142.36;2143439;92;25813;-74
2021/09/24 11:24:06;;;;;;;4.40;1.32;;;;;;;31.27;32.83;99148.23;2448180;79;25085;-77
2021/09/24 11:27:48;;;;;;;3.70;0.90;;;;;;;31.00;33.02;99154.02;2446941;80;25543;-75
2021/09/24 11:31:12;;;;;;;2.27;1.20;;;;;;;30.58;33.48;99154.25;2458031;80;25574;-75
2021/09/24 11:34:58;;;;;;;6.08;1.15;;;;;;;30.04;34.01;99155.70;2453299;80;25655;-80
2021/09/24 11:38:22;;;;;;;2.77;0.93;;;;;;;29.62;34.56;99153.92;2436683;80;25558;-76
2021/09/24 11:41:46;;;;;;;6.35;1.05;;;;;;;29.08;35.19;99150.28;2449110;80;26035;-75
2021/09/24 11:45:31;;;;;;;3.02;1.15;;;;;;;28.70;35.65;99148.50;2449711;80;25668;-75
2021/09/24 11:49:52;;;;;;;4.72;1.10;;;;;;;28.44;36.08;99148.13;2449894;80;26125;-82
2021/09/24 11:53:22;;;;;;;1.98;0.90;;;;;;;28.09;36.46;99162.12;2442415;79;25674;-75
2021/09/24 11:56:43;;;;;;;3.00;1.30;;;;;;;27.79;36.91;99147.64;2456359;80;25420;-79
2021/09/24 12:00:12;;;;;;;3.62;1.25;;;;;;;27.68;37.17;99167.55;2425952;80;25679;-77
2021/09/24 12:03:33;;;;;;;5.95;1.25;;;;;;;27.48;37.42;99167.53;2420308;81;25674;-76
2021/09/24 12:06:54;;;;;;;5.70;1.10;;;;;;;27.86;37.60;99161.47;2440059;80;25163;-81
2021/09/24 12:10:28;;;;;;;4.28;1.22;;;;;;;28.22;37.45;99159.46;2445771;80;25722;-76
2021/09/24 12:14:02;;;;;;;4.67;1.30;;;;;;;28.34;37.12;99179.19;2461754;79;25930;-78
2021/09/24 12:17:27;;;;;;;8.83;1.82;;;;;;;28.17;37.07;99171.81;2450360;78;25679;-74
2021/09/24 12:21:01;;;;;;;3.15;0.80;;;;;;;27.94;37.17;99176.05;2434304;80;25698;-74
2021/09/24 12:24:34;;;;;;;3.33;1.10;;;;;;;27.66;37.46;99189.55;2457445;80;26274;-80
2021/09/24 12:28:14;;;;;;;2.90;0.93;;;;;;;27.37;37.74;99198.13;2432403;80;25694;-76
2021/09/24 12:31:50;;;;;;;2.25;0.88;;;;;;;27.06;38.04;99196.04;2458557;80;25686;-76
2021/09/24 12:35:12;;;;;;;3.50;1.05;;;;;;;26.86;38.40;99199.96;2429120;80;25979;-76
2021/09/24 12:38:37;;;;;;;5.60;1.57;;;;;;;26.94;38.64;99204.38;2430315;80;25221;-75
2021/09/24 12:42:09;;;;;;;3.02;1.00;;;;;;;27.27;38.64;99196.06;2441626;79;25670;-76
2021/09/24 12:45:35;;;;;;;2.62;1.40;;;;;;;27.66;38.52;99205.12;2397596;81;25704;-77
2021/09/24 12:48:56;;;;;;;2.05;1.10;;;;;;;27.63;38.48;99204.47;2428142;81;25771;-75
2021/09/24 12:52:20;;;;;;;5.10;1.35;;;;;;;27.51;38.47;99203.47;2432657;81;25676;-78
2021/09/24 12:55:42;;;;;;;4.53;1.20;;;;;;;27.37;38.51;99202.14;2430287;81;26428;-76
2021/09/24 12:59:06;;;;;;;3.62;1.32;;;;;;;27.31;38.40;99211.44;2396177;81;25620;-78
2021/09/24 13:02:36;;;;;;;2.72;1.45;;;;;;;27.15;38.42;99211.55;2416646;81;25955;-77
2021/09/24 13:06:01;;;;;;;2.50;1.20;;;;;;;26.87;38.58;99222.24;2435739;81;25868;-83
2021/09/24 13:09:29;;;;;;;9.95;1.42;;;;;;;26.63;38.82;99221.91;2424760;81;25714;-77
2021/09/24 13:12:51;;;;;;;6.40;1.90;;;;;;;26.51;38.92;99220.86;2425261;79;25858;-78
2021/09/24 13:16:46;;;;;;;4.58;1.57;;;;;;;26.65;39.08;99220.02;2416340;81;26298;-81
2021/09/24 13:20:26;;;;;;;7.37;0.90;;;;;;;26.91;39.10;99228.63;2425822;80;26319;-77
2021/09/24 13:23:49;;;;;;;4.87;1.27;;;;;;;27.17;38.94;99228.83;2363791;81;26193;-78
2021/09/24 13:27:13;;;;;;;5.78;1.22;;;;;;;27.16;38.83;99234.66;2382259;81;25741;-79
2021/09/24 13:30:34;;;;;;;10.63;1.30;;;;;;;27.15;38.92;99236.97;2387942;82;25671;-79
2021/09/24 13:34:07;;;;;;;4.55;1.25;;;;;;;26.98;38.96;99241.14;2382317;82;25621;-77
2021/09/24 13:37:31;;;;;;;7.60;1.25;;;;;;;26.98;39.18;99229.11;2385799;82;25709;-78
2021/09/24 13:40:52;;;;;;;4.00;1.20;;;;;;;26.98;39.29;99235.80;2378361;82;26424;-81
2021/09/24 13:44:14;;;;;;;5.00;1.22;;;;;;;27.13;39.40;99229.98;2360429;83;25452;-78
2021/09/24 13:47:35;;;;;;;6.42;1.37;;;;;;;27.30;39.36;99249.39;2418875;78;26041;-78
2021/09/24 13:51:14;;;;;;;4.50;1.70;;;;;;;27.57;39.24;99249.03;2383185;81;25971;-78
2021/09/24 13:54:35;;;;;;;5.47;1.55;;;;;;;27.68;39.31;99263.46;2442084;80;25784;-78
2021/09/24 13:57:56;;;;;;;3.20;1.37;;;;;;;27.79;39.16;99256.09;2443644;80;25525;-77
2021/09/24 14:01:17;;;;;;;4.42;1.40;;;;;;;27.72;39.15;99273.49;2383895;82;25737;-80
2021/09/24 14:04:41;;;;;;;4.45;1.70;;;;;;;27.66;39.19;99276.56;2446740;80;25641;-82
2021/09/24 14:08:10;;;;;;;3.40;1.35;;;;;;;27.68;39.23;99275.52;2450256;80;25867;-80
2021/09/24 14:11:39;;;;;;;8.55;1.75;;;;;;;27.87;38.74;99271.66;2424937;79;25690;-78
2021/09/24 14:15:00;;;;;;;6.35;1.35;;;;;;;27.59;38.67;99277.92;2443241;79;25623;-81
2021/09/24 14:18:30;;;;;;;3.90;1.35;;;;;;;27.35;38.72;99280.34;2467367;79;25682;-77
2021/09/24 14:21:51;;;;;;;7.92;1.30;;;;;;;27.06;38.79;99277.63;2467631;79;26442;-79
2021/09/24 14:25:40;;;;;;;3.50;1.27;;;;;;;26.79;38.91;99282.86;2454775;80;25724;-77
2021/09/24 14:29:10;;;;;;;4.62;1.52;;;;;;;26.56;39.00;99283.79;2427762;80;26146;-79
2021/09/24 14:32:37;;;;;;;4.35;1.27;;;;;;;26.30;39.07;99289.78;2356984;81;25986;-77
2021/09/24 14:36:20;;;;;;;4.85;1.42;;;;;;;26.07;39.06;99290.63;2390557;81;26428;-77
2021/09/24 14:39:41;;;;;;;4.53;1.22;;;;;;;25.88;39.23;99287.28;2412925;81;25703;-79
2021/09/24 14:43:07;;;;;;;5.28;1.50;;;;;;;25.74;39.33;99302.71;2361723;82;26047;-79
2021/09/24 14:46:31;;;;;;;6.72;1.45;;;;;;;25.60;39.43;99295.48;2400667;81;25545;-78
2021/09/24 14:49:52;;;;;;;6.35;1.40;;;;;;;25.49;39.63;99313.91;2360603;81;26287;-79
2021/09/24 14:53:27;;;;;;;4.35;1.55;;;;;;;25.36;39.82;99319.52;2361811;82;25356;-77
2021/09/24 15:00:38;;;;;;;5.42;1.25;;;;;;;25.15;40.13;99306.87;2379320;82;25706;-74
2021/09/24 15:03:59;;;;;;;3.98;1.30;;;;;;;25.04;40.90;99322.08;2381846;83;25417;-74
2021/09/24 15:07:28;;;;;;;5.15;1.32;;;;;;;24.98;41.19;99321.06;2370395;83;25768;-81
2021/09/24 15:10:54;;;;;;;9.03;1.27;;;;;;;24.91;41.71;99325.85;2353003;81;25690;-80
2021/09/24 15:14:18;;;;;;;5.55;1.37;;;;;;;24.81;41.93;99336.61;2365895;82;25773;-80
2021/09/24 15:17:39;;;;;;;6.53;2.02;;;;;;;24.64;41.96;99344.61;2382406;83;25671;-82
2021/09/24 15:21:07;;;;;;;3.83;1.35;;;;;;;24.46;42.03;99355.22;2383271;82;25883;-79
2021/09/24 15:24:28;;;;;;;6.30;2.65;;;;;;;24.33;41.99;99355.88;2376459;82;25587;-80
2021/09/24 15:27:51;;;;;;;5.87;2.27;;;;;;;24.16;42.05;99360.22;2382338;82;25708;-79
2021/09/24 15:31:19;;;;;;;3.95;1.52;;;;;;;24.02;42.10;99362.69;2380870;83;25580;-79
2021/09/24 15:34:59;;;;;;;3.27;1.77;;;;;;;23.92;42.09;99366.73;2376011;82;25822;-79
2021/09/24 15:38:20;;;;;;;4.42;1.30;;;;;;;23.82;42.08;99369.44;2384040;82;25691;-80
2021/09/24 15:41:41;;;;;;;4.83;1.55;;;;;;;23.68;42.00;99364.75;2382233;82;25967;-82
2021/09/24 15:45:03;;;;;;;5.97;1.47;;;;;;;23.54;42.03;99380.85;2382022;83;25827;-81
2021/09/24 15:48:24;;;;;;;7.33;1.57;;;;;;;23.41;42.04;99382.34;2380159;83;26017;-79
2021/09/24 15:51:48;;;;;;;7.22;2.55;;;;;;;23.26;42.07;99370.61;2371459;82;25710;-78
2021/09/24 15:55:21;;;;;;;8.05;1.52;;;;;;;23.10;42.05;99374.87;2367601;83;26132;-79
2021/09/24 15:59:07;;;;;;;5.45;1.80;;;;;;;22.96;42.18;99377.27;2413137;81;25740;-78
2021/09/24 16:02:39;;;;;;;5.45;1.77;;;;;;;22.87;42.34;99390.45;2412788;81;25691;-78
2021/09/24 16:06:01;;;;;;;3.95;1.32;;;;;;;22.77;42.43;99395.28;2419152;81;25707;-81
2021/09/24 16:09:21;;;;;;;4.33;1.60;;;;;;;22.69;42.44;99411.16;2411378;80;26079;-78
2021/09/24 16:12:43;;;;;;;3.47;1.07;;;;;;;22.60;42.51;99414.58;2403313;81;25602;-80
2021/09/24 16:16:58;;;;;;;3.47;1.15;;;;;;;22.46;42.46;99410.30;2404270;81;25657;-78
2021/09/24 16:20:19;;;;;;;5.08;1.50;;;;;;;22.32;42.43;99409.53;2407655;81;25509;-83
2021/09/24 16:23:49;;;;;;;4.75;1.85;;;;;;;22.19;42.55;99420.23;2404337;81;25738;-78